sensor_id;sensor_type;location;lat;lon;timestamp;P1;durP1;ratioP1;P2;durP2;ratioP2
22786;SDS011;63134;52.020;4.714;2023-03-14T00:02:30;23.17;;;4.45;;
22786;SDS011;63134;52.020;4.714;2023-03-14T00:05:16;18.73;;;3.88;;
22786;SDS011;63134;52.020;4.714;2023-03-14T00:08:01;22.45;;;4.13;;
22786;SDS011;63134;52.020;4.714;2023-03-14T00:10:47;24.75;;;4.22;;
22786;SDS011;63134;52.020;4.714;2023-03-14T00:13:36;20.75;;;4.38;;
22786;SDS011;63134;52.020;4.714;2023-03-14T00:16:22;17.63;;;3.33;;
22786;SDS011;63134;52.020;4.714;2023-03-14T00:19:08;16.83;;;3.47;;
22786;SDS011;63134;52.020;4.714;2023-03-14T00:21:53;23.27;;;4.28;;
22786;SDS011;63134;52.020;4.714;2023-03-14T00:24:39;18.92;;;3.40;;
22786;SDS011;63134;52.020;4.714;2023-03-14T00:27:24;16.30;;;3.25;;
22786;SDS011;63134;52.020;4.714;2023-03-14T00:30:10;15.70;;;2.97;;
22786;SDS011;63134;52.020;4.714;2023-03-14T00:32:55;19.42;;;3.67;;
22786;SDS011;63134;52.020;4.714;2023-03-14T00:35:43;16.98;;;2.70;;
22786;SDS011;63134;52.020;4.714;2023-03-14T00:38:38;11.20;;;2.90;;
22786;SDS011;63134;52.020;4.714;2023-03-14T00:41:24;13.20;;;3.50;;
22786;SDS011;63134;52.020;4.714;2023-03-14T00:44:10;16.13;;;3.08;;
22786;SDS011;63134;52.020;4.714;2023-03-14T00:46:55;16.40;;;2.78;;
22786;SDS011;63134;52.020;4.714;2023-03-14T00:49:42;13.32;;;3.70;;
22786;SDS011;63134;52.020;4.714;2023-03-14T00:52:28;10.40;;;2.85;;
22786;SDS011;63134;52.020;4.714;2023-03-14T00:55:13;23.75;;;4.20;;
22786;SDS011;63134;52.020;4.714;2023-03-14T00:58:02;27.83;;;4.72;;
22786;SDS011;63134;52.020;4.714;2023-03-14T01:00:47;30.27;;;4.70;;
22786;SDS011;63134;52.020;4.714;2023-03-14T01:03:32;15.35;;;3.40;;
22786;SDS011;63134;52.020;4.714;2023-03-14T01:06:19;20.70;;;3.83;;
22786;SDS011;63134;52.020;4.714;2023-03-14T01:09:09;23.95;;;4.47;;
22786;SDS011;63134;52.020;4.714;2023-03-14T01:11:55;22.33;;;3.78;;
22786;SDS011;63134;52.020;4.714;2023-03-14T01:14:41;12.50;;;3.58;;
22786;SDS011;63134;52.020;4.714;2023-03-14T01:17:26;18.73;;;3.60;;
22786;SDS011;63134;52.020;4.714;2023-03-14T01:20:12;22.13;;;4.10;;
22786;SDS011;63134;52.020;4.714;2023-03-14T01:22:59;15.95;;;3.60;;
22786;SDS011;63134;52.020;4.714;2023-03-14T01:25:45;23.15;;;3.97;;
22786;SDS011;63134;52.020;4.714;2023-03-14T01:28:30;17.27;;;3.30;;
22786;SDS011;63134;52.020;4.714;2023-03-14T01:31:16;12.82;;;2.83;;
22786;SDS011;63134;52.020;4.714;2023-03-14T01:34:02;23.38;;;3.53;;
22786;SDS011;63134;52.020;4.714;2023-03-14T01:36:51;17.52;;;3.20;;
22786;SDS011;63134;52.020;4.714;2023-03-14T01:39:39;27.08;;;4.13;;
22786;SDS011;63134;52.020;4.714;2023-03-14T01:42:24;17.50;;;3.13;;
22786;SDS011;63134;52.020;4.714;2023-03-14T01:51:38;19.50;;;3.25;;
22786;SDS011;63134;52.020;4.714;2023-03-14T02:00:07;15.40;;;2.85;;
22786;SDS011;63134;52.020;4.714;2023-03-14T02:03:00;16.33;;;3.20;;
22786;SDS011;63134;52.020;4.714;2023-03-14T02:05:51;15.23;;;3.40;;
22786;SDS011;63134;52.020;4.714;2023-03-14T02:08:40;16.83;;;3.45;;
22786;SDS011;63134;52.020;4.714;2023-03-14T02:11:35;27.80;;;3.92;;
22786;SDS011;63134;52.020;4.714;2023-03-14T02:14:32;18.25;;;3.03;;
22786;SDS011;63134;52.020;4.714;2023-03-14T02:17:36;12.20;;;2.83;;
22786;SDS011;63134;52.020;4.714;2023-03-14T02:30:00;13.35;;;2.85;;
22786;SDS011;63134;52.020;4.714;2023-03-14T02:32:52;20.98;;;2.88;;
22786;SDS011;63134;52.020;4.714;2023-03-14T02:38:39;13.98;;;3.10;;
22786;SDS011;63134;52.020;4.714;2023-03-14T02:41:42;15.73;;;3.40;;
22786;SDS011;63134;52.020;4.714;2023-03-14T02:44:34;15.75;;;3.08;;
22786;SDS011;63134;52.020;4.714;2023-03-14T02:47:22;18.13;;;3.10;;
22786;SDS011;63134;52.020;4.714;2023-03-14T02:50:17;15.55;;;3.30;;
22786;SDS011;63134;52.020;4.714;2023-03-14T02:53:05;8.63;;;2.58;;
22786;SDS011;63134;52.020;4.714;2023-03-14T02:55:51;12.40;;;3.33;;
22786;SDS011;63134;52.020;4.714;2023-03-14T02:58:39;15.57;;;4.57;;
22786;SDS011;63134;52.020;4.714;2023-03-14T03:01:59;17.55;;;3.03;;
22786;SDS011;63134;52.020;4.714;2023-03-14T03:04:45;12.77;;;2.97;;
22786;SDS011;63134;52.020;4.714;2023-03-14T03:07:33;14.20;;;3.55;;
22786;SDS011;63134;52.020;4.714;2023-03-14T03:10:19;20.38;;;3.40;;
22786;SDS011;63134;52.020;4.714;2023-03-14T03:13:05;17.83;;;3.28;;
22786;SDS011;63134;52.020;4.714;2023-03-14T03:15:50;17.13;;;3.70;;
22786;SDS011;63134;52.020;4.714;2023-03-14T03:18:36;18.38;;;3.25;;
22786;SDS011;63134;52.020;4.714;2023-03-14T03:21:22;16.85;;;3.00;;
22786;SDS011;63134;52.020;4.714;2023-03-14T03:24:08;12.77;;;3.50;;
22786;SDS011;63134;52.020;4.714;2023-03-14T03:26:53;20.80;;;4.47;;
22786;SDS011;63134;52.020;4.714;2023-03-14T03:29:38;16.27;;;3.30;;
22786;SDS011;63134;52.020;4.714;2023-03-14T03:32:25;13.48;;;2.60;;
22786;SDS011;63134;52.020;4.714;2023-03-14T03:35:11;19.48;;;3.95;;
22786;SDS011;63134;52.020;4.714;2023-03-14T03:38:00;14.85;;;3.40;;
22786;SDS011;63134;52.020;4.714;2023-03-14T03:40:46;10.70;;;2.70;;
22786;SDS011;63134;52.020;4.714;2023-03-14T03:43:32;21.85;;;3.33;;
22786;SDS011;63134;52.020;4.714;2023-03-14T03:46:19;19.00;;;3.90;;
22786;SDS011;63134;52.020;4.714;2023-03-14T03:49:05;14.75;;;3.25;;
22786;SDS011;63134;52.020;4.714;2023-03-14T03:51:50;20.02;;;3.50;;
22786;SDS011;63134;52.020;4.714;2023-03-14T03:54:38;21.20;;;3.65;;
22786;SDS011;63134;52.020;4.714;2023-03-14T03:57:24;12.40;;;3.60;;
22786;SDS011;63134;52.020;4.714;2023-03-14T04:00:10;18.30;;;3.55;;
22786;SDS011;63134;52.020;4.714;2023-03-14T04:03:00;16.77;;;4.13;;
22786;SDS011;63134;52.020;4.714;2023-03-14T04:05:46;13.68;;;3.28;;
22786;SDS011;63134;52.020;4.714;2023-03-14T04:08:43;16.35;;;3.45;;
22786;SDS011;63134;52.020;4.714;2023-03-14T04:11:44;15.50;;;3.05;;
22786;SDS011;63134;52.020;4.714;2023-03-14T04:14:44;16.73;;;3.75;;
22786;SDS011;63134;52.020;4.714;2023-03-14T04:17:35;15.27;;;3.05;;
22786;SDS011;63134;52.020;4.714;2023-03-14T04:20:22;11.88;;;2.88;;
22786;SDS011;63134;52.020;4.714;2023-03-14T04:23:07;20.55;;;4.05;;
22786;SDS011;63134;52.020;4.714;2023-03-14T04:25:53;12.20;;;2.45;;
22786;SDS011;63134;52.020;4.714;2023-03-14T04:28:40;22.73;;;4.00;;
22786;SDS011;63134;52.020;4.714;2023-03-14T04:31:27;17.25;;;2.75;;
22786;SDS011;63134;52.020;4.714;2023-03-14T04:34:13;16.50;;;2.80;;
22786;SDS011;63134;52.020;4.714;2023-03-14T04:37:08;18.70;;;4.55;;
22786;SDS011;63134;52.020;4.714;2023-03-14T04:39:58;11.90;;;2.97;;
22786;SDS011;63134;52.020;4.714;2023-03-14T04:42:47;13.85;;;3.25;;
22786;SDS011;63134;52.020;4.714;2023-03-14T04:45:33;18.98;;;3.60;;
22786;SDS011;63134;52.020;4.714;2023-03-14T04:48:25;21.25;;;3.72;;
22786;SDS011;63134;52.020;4.714;2023-03-14T04:51:11;14.88;;;3.40;;
22786;SDS011;63134;52.020;4.714;2023-03-14T04:54:04;23.25;;;4.45;;
22786;SDS011;63134;52.020;4.714;2023-03-14T04:56:50;21.63;;;3.67;;
22786;SDS011;63134;52.020;4.714;2023-03-14T04:59:37;30.33;;;4.97;;
22786;SDS011;63134;52.020;4.714;2023-03-14T05:05:35;18.00;;;3.88;;
22786;SDS011;63134;52.020;4.714;2023-03-14T05:08:30;21.17;;;4.22;;
22786;SDS011;63134;52.020;4.714;2023-03-14T05:11:27;26.25;;;4.20;;
22786;SDS011;63134;52.020;4.714;2023-03-14T05:14:35;15.68;;;3.88;;
22786;SDS011;63134;52.020;4.714;2023-03-14T05:17:29;17.97;;;4.60;;
22786;SDS011;63134;52.020;4.714;2023-03-14T05:20:37;16.70;;;4.00;;
22786;SDS011;63134;52.020;4.714;2023-03-14T05:23:42;17.33;;;4.80;;
22786;SDS011;63134;52.020;4.714;2023-03-14T05:26:54;17.02;;;3.83;;
22786;SDS011;63134;52.020;4.714;2023-03-14T05:29:58;16.50;;;4.78;;
22786;SDS011;63134;52.020;4.714;2023-03-14T05:33:02;20.42;;;4.65;;
22786;SDS011;63134;52.020;4.714;2023-03-14T05:35:56;21.10;;;4.72;;
22786;SDS011;63134;52.020;4.714;2023-03-14T05:39:02;17.48;;;5.32;;
22786;SDS011;63134;52.020;4.714;2023-03-14T05:42:01;24.10;;;5.88;;
22786;SDS011;63134;52.020;4.714;2023-03-14T05:45:01;31.95;;;6.85;;
22786;SDS011;63134;52.020;4.714;2023-03-14T05:48:11;23.80;;;7.07;;
22786;SDS011;63134;52.020;4.714;2023-03-14T05:51:04;14.95;;;5.32;;
22786;SDS011;63134;52.020;4.714;2023-03-14T05:54:01;23.02;;;4.85;;
22786;SDS011;63134;52.020;4.714;2023-03-14T05:57:25;23.17;;;4.53;;
22786;SDS011;63134;52.020;4.714;2023-03-14T06:00:28;17.15;;;3.10;;
22786;SDS011;63134;52.020;4.714;2023-03-14T06:03:28;16.92;;;3.00;;
22786;SDS011;63134;52.020;4.714;2023-03-14T06:06:18;24.35;;;2.90;;
22786;SDS011;63134;52.020;4.714;2023-03-14T06:09:04;10.02;;;2.20;;
22786;SDS011;63134;52.020;4.714;2023-03-14T06:11:52;15.05;;;3.35;;
22786;SDS011;63134;52.020;4.714;2023-03-14T06:14:39;18.10;;;3.78;;
22786;SDS011;63134;52.020;4.714;2023-03-14T06:17:24;19.65;;;3.42;;
22786;SDS011;63134;52.020;4.714;2023-03-14T06:20:23;17.27;;;3.90;;
22786;SDS011;63134;52.020;4.714;2023-03-14T06:23:09;23.27;;;3.65;;
22786;SDS011;63134;52.020;4.714;2023-03-14T06:25:54;18.05;;;3.05;;
22786;SDS011;63134;52.020;4.714;2023-03-14T06:28:41;13.68;;;3.10;;
22786;SDS011;63134;52.020;4.714;2023-03-14T06:31:33;21.38;;;3.97;;
22786;SDS011;63134;52.020;4.714;2023-03-14T06:34:22;24.48;;;3.80;;
22786;SDS011;63134;52.020;4.714;2023-03-14T06:37:08;20.67;;;3.83;;
22786;SDS011;63134;52.020;4.714;2023-03-14T06:39:54;16.88;;;3.05;;
22786;SDS011;63134;52.020;4.714;2023-03-14T06:43:01;12.65;;;2.53;;
22786;SDS011;63134;52.020;4.714;2023-03-14T06:45:51;4.65;;;1.90;;
22786;SDS011;63134;52.020;4.714;2023-03-14T06:48:37;9.88;;;1.95;;
22786;SDS011;63134;52.020;4.714;2023-03-14T06:51:24;11.45;;;2.72;;
22786;SDS011;63134;52.020;4.714;2023-03-14T06:54:11;13.60;;;2.20;;
22786;SDS011;63134;52.020;4.714;2023-03-14T06:57:00;15.60;;;2.60;;
22786;SDS011;63134;52.020;4.714;2023-03-14T06:59:49;14.45;;;2.97;;
22786;SDS011;63134;52.020;4.714;2023-03-14T07:02:35;15.85;;;2.80;;
22786;SDS011;63134;52.020;4.714;2023-03-14T07:05:39;19.63;;;2.80;;
22786;SDS011;63134;52.020;4.714;2023-03-14T07:08:25;20.35;;;2.90;;
22786;SDS011;63134;52.020;4.714;2023-03-14T07:11:11;22.25;;;3.40;;
22786;SDS011;63134;52.020;4.714;2023-03-14T07:13:59;21.35;;;3.05;;
22786;SDS011;63134;52.020;4.714;2023-03-14T07:16:44;23.30;;;2.90;;
22786;SDS011;63134;52.020;4.714;2023-03-14T07:19:30;21.60;;;3.90;;
22786;SDS011;63134;52.020;4.714;2023-03-14T07:22:15;23.63;;;3.08;;
22786;SDS011;63134;52.020;4.714;2023-03-14T07:25:01;27.85;;;3.45;;
22786;SDS011;63134;52.020;4.714;2023-03-14T07:27:47;24.90;;;3.80;;
22786;SDS011;63134;52.020;4.714;2023-03-14T07:30:32;26.02;;;3.55;;
22786;SDS011;63134;52.020;4.714;2023-03-14T07:33:20;21.15;;;3.20;;
22786;SDS011;63134;52.020;4.714;2023-03-14T07:36:06;17.52;;;2.97;;
22786;SDS011;63134;52.020;4.714;2023-03-14T07:38:52;16.60;;;2.85;;
22786;SDS011;63134;52.020;4.714;2023-03-14T07:41:56;15.88;;;2.80;;
22786;SDS011;63134;52.020;4.714;2023-03-14T07:45:03;23.95;;;3.45;;
22786;SDS011;63134;52.020;4.714;2023-03-14T07:47:52;22.50;;;3.58;;
22786;SDS011;63134;52.020;4.714;2023-03-14T07:50:42;39.22;;;4.35;;
22786;SDS011;63134;52.020;4.714;2023-03-14T07:53:27;14.00;;;2.00;;
22786;SDS011;63134;52.020;4.714;2023-03-14T07:56:13;15.20;;;2.40;;
22786;SDS011;63134;52.020;4.714;2023-03-14T07:59:01;15.43;;;2.35;;
22786;SDS011;63134;52.020;4.714;2023-03-14T08:01:48;21.42;;;2.53;;
22786;SDS011;63134;52.020;4.714;2023-03-14T08:04:33;31.00;;;4.72;;
22786;SDS011;63134;52.020;4.714;2023-03-14T08:07:19;24.75;;;5.82;;
22786;SDS011;63134;52.020;4.714;2023-03-14T08:10:05;31.05;;;4.65;;
22786;SDS011;63134;52.020;4.714;2023-03-14T08:12:55;23.63;;;5.40;;
22786;SDS011;63134;52.020;4.714;2023-03-14T08:15:41;12.15;;;3.03;;
22786;SDS011;63134;52.020;4.714;2023-03-14T08:18:30;20.02;;;3.22;;
22786;SDS011;63134;52.020;4.714;2023-03-14T08:21:17;12.60;;;2.30;;
22786;SDS011;63134;52.020;4.714;2023-03-14T08:24:05;12.80;;;2.35;;
22786;SDS011;63134;52.020;4.714;2023-03-14T08:26:51;12.70;;;2.58;;
22786;SDS011;63134;52.020;4.714;2023-03-14T08:29:36;19.67;;;2.30;;
22786;SDS011;63134;52.020;4.714;2023-03-14T08:32:22;12.23;;;2.10;;
22786;SDS011;63134;52.020;4.714;2023-03-14T08:35:08;12.30;;;1.70;;
22786;SDS011;63134;52.020;4.714;2023-03-14T08:37:55;9.10;;;1.60;;
22786;SDS011;63134;52.020;4.714;2023-03-14T08:40:40;7.22;;;1.60;;
22786;SDS011;63134;52.020;4.714;2023-03-14T08:43:26;9.02;;;2.05;;
22786;SDS011;63134;52.020;4.714;2023-03-14T08:46:14;6.85;;;1.50;;
22786;SDS011;63134;52.020;4.714;2023-03-14T08:48:59;6.47;;;1.83;;
22786;SDS011;63134;52.020;4.714;2023-03-14T08:51:45;8.07;;;1.77;;
22786;SDS011;63134;52.020;4.714;2023-03-14T08:54:31;8.77;;;2.15;;
22786;SDS011;63134;52.020;4.714;2023-03-14T08:57:19;12.68;;;2.08;;
22786;SDS011;63134;52.020;4.714;2023-03-14T09:00:06;12.80;;;1.77;;
22786;SDS011;63134;52.020;4.714;2023-03-14T09:02:57;9.23;;;1.75;;
22786;SDS011;63134;52.020;4.714;2023-03-14T09:05:43;14.82;;;2.53;;
22786;SDS011;63134;52.020;4.714;2023-03-14T09:08:30;13.48;;;2.40;;
22786;SDS011;63134;52.020;4.714;2023-03-14T09:11:16;15.50;;;2.70;;
22786;SDS011;63134;52.020;4.714;2023-03-14T09:14:03;9.43;;;2.67;;
22786;SDS011;63134;52.020;4.714;2023-03-14T09:16:48;16.90;;;3.15;;
22786;SDS011;63134;52.020;4.714;2023-03-14T09:19:38;13.90;;;2.72;;
22786;SDS011;63134;52.020;4.714;2023-03-14T09:22:24;15.18;;;2.85;;
22786;SDS011;63134;52.020;4.714;2023-03-14T09:25:15;13.95;;;2.97;;
22786;SDS011;63134;52.020;4.714;2023-03-14T09:28:01;19.90;;;3.80;;
22786;SDS011;63134;52.020;4.714;2023-03-14T09:30:46;24.85;;;3.60;;
22786;SDS011;63134;52.020;4.714;2023-03-14T09:33:32;22.80;;;3.47;;
22786;SDS011;63134;52.020;4.714;2023-03-14T09:36:18;19.70;;;3.78;;
22786;SDS011;63134;52.020;4.714;2023-03-14T09:39:11;27.17;;;4.78;;
22786;SDS011;63134;52.020;4.714;2023-03-14T09:41:58;21.73;;;4.05;;
22786;SDS011;63134;52.020;4.714;2023-03-14T09:44:53;18.48;;;3.80;;
22786;SDS011;63134;52.020;4.714;2023-03-14T09:47:41;17.35;;;3.85;;
22786;SDS011;63134;52.020;4.714;2023-03-14T09:50:45;22.30;;;3.80;;
22786;SDS011;63134;52.020;4.714;2023-03-14T09:53:41;17.55;;;3.83;;
22786;SDS011;63134;52.020;4.714;2023-03-14T09:56:29;20.98;;;3.97;;
22786;SDS011;63134;52.020;4.714;2023-03-14T09:59:17;13.15;;;3.40;;
22786;SDS011;63134;52.020;4.714;2023-03-14T10:02:11;21.83;;;4.57;;
22786;SDS011;63134;52.020;4.714;2023-03-14T10:05:05;22.73;;;3.85;;
22786;SDS011;63134;52.020;4.714;2023-03-14T10:08:04;16.23;;;3.53;;
22786;SDS011;63134;52.020;4.714;2023-03-14T10:10:50;22.73;;;4.57;;
22786;SDS011;63134;52.020;4.714;2023-03-14T10:13:36;30.42;;;5.50;;
22786;SDS011;63134;52.020;4.714;2023-03-14T10:16:34;25.70;;;4.80;;
22786;SDS011;63134;52.020;4.714;2023-03-14T10:19:25;27.77;;;4.78;;
22786;SDS011;63134;52.020;4.714;2023-03-14T10:22:12;27.42;;;5.22;;
22786;SDS011;63134;52.020;4.714;2023-03-14T10:25:04;18.98;;;3.85;;
22786;SDS011;63134;52.020;4.714;2023-03-14T10:27:52;22.17;;;4.95;;
22786;SDS011;63134;52.020;4.714;2023-03-14T10:30:43;27.10;;;5.60;;
22786;SDS011;63134;52.020;4.714;2023-03-14T10:33:31;33.85;;;7.00;;
22786;SDS011;63134;52.020;4.714;2023-03-14T10:42:15;34.47;;;5.28;;
22786;SDS011;63134;52.020;4.714;2023-03-14T10:45:31;31.15;;;5.00;;
22786;SDS011;63134;52.020;4.714;2023-03-14T10:48:21;37.15;;;5.93;;
22786;SDS011;63134;52.020;4.714;2023-03-14T10:51:28;34.15;;;5.30;;
22786;SDS011;63134;52.020;4.714;2023-03-14T10:54:22;33.90;;;4.88;;
22786;SDS011;63134;52.020;4.714;2023-03-14T10:57:22;25.45;;;4.47;;
22786;SDS011;63134;52.020;4.714;2023-03-14T11:00:27;30.85;;;5.40;;
22786;SDS011;63134;52.020;4.714;2023-03-14T11:03:17;26.42;;;4.50;;
22786;SDS011;63134;52.020;4.714;2023-03-14T11:06:10;29.33;;;5.97;;
22786;SDS011;63134;52.020;4.714;2023-03-14T11:09:25;37.88;;;6.03;;
22786;SDS011;63134;52.020;4.714;2023-03-14T11:15:40;25.52;;;4.60;;
22786;SDS011;63134;52.020;4.714;2023-03-14T11:19:02;28.92;;;4.82;;
22786;SDS011;63134;52.020;4.714;2023-03-14T11:21:54;21.30;;;4.00;;
22786;SDS011;63134;52.020;4.714;2023-03-14T11:24:49;22.33;;;3.40;;
22786;SDS011;63134;52.020;4.714;2023-03-14T11:27:43;20.48;;;4.30;;
22786;SDS011;63134;52.020;4.714;2023-03-14T11:30:34;25.23;;;4.15;;
22786;SDS011;63134;52.020;4.714;2023-03-14T11:33:46;21.92;;;3.58;;
22786;SDS011;63134;52.020;4.714;2023-03-14T11:40:11;14.00;;;3.33;;
22786;SDS011;63134;52.020;4.714;2023-03-14T11:46:06;13.10;;;3.22;;
22786;SDS011;63134;52.020;4.714;2023-03-14T11:49:13;16.17;;;3.22;;
22786;SDS011;63134;52.020;4.714;2023-03-14T11:52:17;15.10;;;3.25;;
22786;SDS011;63134;52.020;4.714;2023-03-14T11:55:15;19.60;;;3.75;;
22786;SDS011;63134;52.020;4.714;2023-03-14T11:58:34;12.57;;;2.50;;
22786;SDS011;63134;52.020;4.714;2023-03-14T12:01:34;14.30;;;3.28;;
22786;SDS011;63134;52.020;4.714;2023-03-14T12:10:05;16.60;;;3.20;;
22786;SDS011;63134;52.020;4.714;2023-03-14T12:12:51;15.77;;;3.05;;
22786;SDS011;63134;52.020;4.714;2023-03-14T12:15:40;17.00;;;3.20;;
22786;SDS011;63134;52.020;4.714;2023-03-14T12:18:33;17.15;;;3.30;;
22786;SDS011;63134;52.020;4.714;2023-03-14T12:21:28;17.13;;;3.00;;
22786;SDS011;63134;52.020;4.714;2023-03-14T12:24:32;16.42;;;3.55;;
22786;SDS011;63134;52.020;4.714;2023-03-14T12:30:39;21.35;;;3.08;;
22786;SDS011;63134;52.020;4.714;2023-03-14T12:33:26;11.40;;;2.97;;
22786;SDS011;63134;52.020;4.714;2023-03-14T12:36:20;10.68;;;2.70;;
22786;SDS011;63134;52.020;4.714;2023-03-14T12:43:00;13.43;;;2.83;;
22786;SDS011;63134;52.020;4.714;2023-03-14T12:46:07;10.25;;;2.67;;
22786;SDS011;63134;52.020;4.714;2023-03-14T12:49:04;12.07;;;2.13;;
22786;SDS011;63134;52.020;4.714;2023-03-14T12:51:54;11.27;;;2.97;;
22786;SDS011;63134;52.020;4.714;2023-03-14T12:57:49;17.67;;;2.33;;
22786;SDS011;63134;52.020;4.714;2023-03-14T13:00:54;9.75;;;2.50;;
22786;SDS011;63134;52.020;4.714;2023-03-14T13:03:57;8.77;;;2.70;;
22786;SDS011;63134;52.020;4.714;2023-03-14T13:06:49;8.40;;;2.40;;
22786;SDS011;63134;52.020;4.714;2023-03-14T13:10:41;12.30;;;1.90;;
22786;SDS011;63134;52.020;4.714;2023-03-14T13:12:55;12.45;;;2.38;;
22786;SDS011;63134;52.020;4.714;2023-03-14T13:16:00;11.10;;;2.15;;
22786;SDS011;63134;52.020;4.714;2023-03-14T13:18:49;9.13;;;2.25;;
22786;SDS011;63134;52.020;4.714;2023-03-14T13:24:32;13.18;;;2.78;;
22786;SDS011;63134;52.020;4.714;2023-03-14T13:27:19;12.15;;;2.13;;
22786;SDS011;63134;52.020;4.714;2023-03-14T13:30:17;14.57;;;2.67;;
22786;SDS011;63134;52.020;4.714;2023-03-14T13:33:16;12.30;;;2.05;;
22786;SDS011;63134;52.020;4.714;2023-03-14T13:36:04;15.73;;;2.78;;
22786;SDS011;63134;52.020;4.714;2023-03-14T13:38:55;10.52;;;2.15;;
22786;SDS011;63134;52.020;4.714;2023-03-14T13:41:42;13.35;;;2.58;;
22786;SDS011;63134;52.020;4.714;2023-03-14T13:44:36;12.95;;;2.40;;
22786;SDS011;63134;52.020;4.714;2023-03-14T13:47:24;12.85;;;2.85;;
22786;SDS011;63134;52.020;4.714;2023-03-14T13:50:17;13.55;;;3.13;;
22786;SDS011;63134;52.020;4.714;2023-03-14T13:53:03;10.48;;;2.15;;
22786;SDS011;63134;52.020;4.714;2023-03-14T13:55:50;9.18;;;2.17;;
22786;SDS011;63134;52.020;4.714;2023-03-14T13:58:37;8.10;;;2.17;;
22786;SDS011;63134;52.020;4.714;2023-03-14T14:04:18;14.82;;;2.58;;
22786;SDS011;63134;52.020;4.714;2023-03-14T14:07:07;12.50;;;2.53;;
22786;SDS011;63134;52.020;4.714;2023-03-14T14:09:57;14.70;;;2.05;;
22786;SDS011;63134;52.020;4.714;2023-03-14T14:12:55;17.45;;;2.70;;
22786;SDS011;63134;52.020;4.714;2023-03-14T14:15:44;18.20;;;2.88;;
22786;SDS011;63134;52.020;4.714;2023-03-14T14:18:33;9.90;;;2.80;;
22786;SDS011;63134;52.020;4.714;2023-03-14T14:21:20;10.70;;;2.17;;
22786;SDS011;63134;52.020;4.714;2023-03-14T14:24:08;12.60;;;1.95;;
22786;SDS011;63134;52.020;4.714;2023-03-14T14:30:02;10.55;;;1.98;;
22786;SDS011;63134;52.020;4.714;2023-03-14T14:33:11;19.25;;;3.03;;
22786;SDS011;63134;52.020;4.714;2023-03-14T14:36:12;15.18;;;2.65;;
22786;SDS011;63134;52.020;4.714;2023-03-14T14:41:50;13.57;;;2.80;;
22786;SDS011;63134;52.020;4.714;2023-03-14T14:44:37;13.32;;;3.17;;
22786;SDS011;63134;52.020;4.714;2023-03-14T14:47:23;17.35;;;1.92;;
22786;SDS011;63134;52.020;4.714;2023-03-14T14:51:21;7.90;;;2.20;;
22786;SDS011;63134;52.020;4.714;2023-03-14T14:53:42;12.43;;;2.40;;
22786;SDS011;63134;52.020;4.714;2023-03-14T14:56:28;13.55;;;2.33;;
22786;SDS011;63134;52.020;4.714;2023-03-14T14:59:25;7.90;;;2.25;;
22786;SDS011;63134;52.020;4.714;2023-03-14T15:02:33;9.70;;;1.85;;
22786;SDS011;63134;52.020;4.714;2023-03-14T15:05:26;13.50;;;2.38;;
22786;SDS011;63134;52.020;4.714;2023-03-14T15:08:14;10.25;;;2.50;;
22786;SDS011;63134;52.020;4.714;2023-03-14T15:11:00;10.68;;;2.20;;
22786;SDS011;63134;52.020;4.714;2023-03-14T15:13:47;11.55;;;2.20;;
22786;SDS011;63134;52.020;4.714;2023-03-14T15:16:32;11.80;;;2.42;;
22786;SDS011;63134;52.020;4.714;2023-03-14T15:19:21;8.40;;;2.45;;
22786;SDS011;63134;52.020;4.714;2023-03-14T15:22:11;14.05;;;2.25;;
22786;SDS011;63134;52.020;4.714;2023-03-14T15:25:00;12.15;;;2.85;;
22786;SDS011;63134;52.020;4.714;2023-03-14T15:27:46;15.90;;;2.70;;
22786;SDS011;63134;52.020;4.714;2023-03-14T15:30:32;13.73;;;2.65;;
22786;SDS011;63134;52.020;4.714;2023-03-14T15:33:17;12.35;;;2.40;;
22786;SDS011;63134;52.020;4.714;2023-03-14T15:36:06;9.63;;;2.78;;
22786;SDS011;63134;52.020;4.714;2023-03-14T15:39:12;9.57;;;2.00;;
22786;SDS011;63134;52.020;4.714;2023-03-14T15:41:58;14.98;;;2.88;;
22786;SDS011;63134;52.020;4.714;2023-03-14T15:44:43;11.60;;;2.28;;
22786;SDS011;63134;52.020;4.714;2023-03-14T15:47:29;7.03;;;2.45;;
22786;SDS011;63134;52.020;4.714;2023-03-14T15:50:16;9.88;;;1.85;;
22786;SDS011;63134;52.020;4.714;2023-03-14T15:53:04;6.25;;;1.90;;
22786;SDS011;63134;52.020;4.714;2023-03-14T15:55:49;7.53;;;1.98;;
22786;SDS011;63134;52.020;4.714;2023-03-14T15:58:36;8.80;;;1.80;;
22786;SDS011;63134;52.020;4.714;2023-03-14T16:01:25;10.38;;;2.10;;
22786;SDS011;63134;52.020;4.714;2023-03-14T16:04:12;12.38;;;2.45;;
22786;SDS011;63134;52.020;4.714;2023-03-14T16:06:59;11.40;;;2.60;;
22786;SDS011;63134;52.020;4.714;2023-03-14T16:09:44;19.70;;;2.60;;
22786;SDS011;63134;52.020;4.714;2023-03-14T16:12:30;15.77;;;2.25;;
22786;SDS011;63134;52.020;4.714;2023-03-14T16:15:16;15.48;;;2.58;;
22786;SDS011;63134;52.020;4.714;2023-03-14T16:18:01;12.88;;;2.13;;
22786;SDS011;63134;52.020;4.714;2023-03-14T16:21:05;11.75;;;2.47;;
22786;SDS011;63134;52.020;4.714;2023-03-14T16:23:55;9.32;;;1.90;;
22786;SDS011;63134;52.020;4.714;2023-03-14T16:26:40;9.68;;;2.22;;
22786;SDS011;63134;52.020;4.714;2023-03-14T16:29:26;12.27;;;2.58;;
22786;SDS011;63134;52.020;4.714;2023-03-14T16:32:11;12.35;;;2.45;;
22786;SDS011;63134;52.020;4.714;2023-03-14T16:34:57;12.98;;;2.30;;
22786;SDS011;63134;52.020;4.714;2023-03-14T16:37:42;11.48;;;2.63;;
22786;SDS011;63134;52.020;4.714;2023-03-14T16:40:29;8.55;;;2.45;;
22786;SDS011;63134;52.020;4.714;2023-03-14T16:43:14;13.40;;;2.92;;
22786;SDS011;63134;52.020;4.714;2023-03-14T16:46:00;11.25;;;2.47;;
22786;SDS011;63134;52.020;4.714;2023-03-14T16:48:46;10.73;;;3.20;;
22786;SDS011;63134;52.020;4.714;2023-03-14T16:51:31;18.63;;;3.33;;
22786;SDS011;63134;52.020;4.714;2023-03-14T16:54:17;14.35;;;2.63;;
22786;SDS011;63134;52.020;4.714;2023-03-14T16:57:02;14.02;;;2.20;;
22786;SDS011;63134;52.020;4.714;2023-03-14T16:59:51;12.82;;;2.92;;
22786;SDS011;63134;52.020;4.714;2023-03-14T17:02:36;14.40;;;2.63;;
22786;SDS011;63134;52.020;4.714;2023-03-14T17:05:22;11.10;;;2.47;;
22786;SDS011;63134;52.020;4.714;2023-03-14T17:08:08;13.57;;;2.63;;
22786;SDS011;63134;52.020;4.714;2023-03-14T17:10:54;15.95;;;3.40;;
22786;SDS011;63134;52.020;4.714;2023-03-14T17:13:40;9.20;;;2.50;;
22786;SDS011;63134;52.020;4.714;2023-03-14T17:16:25;11.95;;;2.63;;
22786;SDS011;63134;52.020;4.714;2023-03-14T17:19:11;9.02;;;3.10;;
22786;SDS011;63134;52.020;4.714;2023-03-14T17:21:57;18.00;;;3.17;;
22786;SDS011;63134;52.020;4.714;2023-03-14T17:27:55;14.23;;;2.97;;
22786;SDS011;63134;52.020;4.714;2023-03-14T17:30:40;13.27;;;2.80;;
22786;SDS011;63134;52.020;4.714;2023-03-14T17:33:32;23.77;;;3.15;;
22786;SDS011;63134;52.020;4.714;2023-03-14T17:36:19;11.68;;;2.83;;
22786;SDS011;63134;52.020;4.714;2023-03-14T17:39:09;10.45;;;2.33;;
22786;SDS011;63134;52.020;4.714;2023-03-14T17:41:54;10.13;;;2.92;;
22786;SDS011;63134;52.020;4.714;2023-03-14T17:44:40;15.68;;;3.00;;
22786;SDS011;63134;52.020;4.714;2023-03-14T17:47:29;11.20;;;2.80;;
22786;SDS011;63134;52.020;4.714;2023-03-14T17:50:15;9.85;;;2.42;;
22786;SDS011;63134;52.020;4.714;2023-03-14T17:53:01;14.75;;;2.75;;
22786;SDS011;63134;52.020;4.714;2023-03-14T17:55:50;17.27;;;3.30;;
22786;SDS011;63134;52.020;4.714;2023-03-14T17:58:37;13.10;;;3.88;;
22786;SDS011;63134;52.020;4.714;2023-03-14T18:01:23;13.05;;;3.28;;
22786;SDS011;63134;52.020;4.714;2023-03-14T18:04:08;14.52;;;3.35;;
22786;SDS011;63134;52.020;4.714;2023-03-14T18:06:54;15.75;;;2.55;;
22786;SDS011;63134;52.020;4.714;2023-03-14T18:09:40;21.70;;;2.70;;